Time;durP1;ratioP1;P1;durP2;ratioP2;P2;SDS_P1;SDS_P2;PMS_P1;PMS_P2;Temp;Humidity;BMP_temperature;BMP_pressure;BME280_temperature;BME280_humidity;BME280_pressure;Samples;Min_cycle;Max_cycle;Signal;HPM_P1;HPM_P2
2022/11/12 00:01:30;;;;;;;20.53;13.87;;;;;;;;;;5110875;27;20505;-74
2022/11/12 00:03:56;;;;;;;20.17;13.60;;;;;;;;;;5110597;28;20426;-74
2022/11/12 00:06:25;;;;;;;22.13;15.57;;;;;;;;;;5114553;27;20395;-74
2022/11/12 00:08:51;;;;;;;24.77;17.20;;;;;;;;;;5132531;27;20451;-74
2022/11/12 00:11:17;;;;;;;27.77;17.38;;;;;;;;;;5096517;28;20414;-74
2022/11/12 00:13:43;;;;;;;26.33;16.65;;;;;;;;;;5128902;28;20560;-74
2022/11/12 00:16:09;;;;;;;26.65;16.00;;;;;;;;;;5092708;28;20414;-75
2022/11/12 00:18:35;;;;;;;21.48;16.23;;;;;;;;;;5115404;27;20414;-75
2022/11/12 00:21:01;;;;;;;24.70;16.75;;;;;;;;;;5096348;27;20434;-74
2022/11/12 00:23:27;;;;;;;28.58;17.73;;;;;;;;;;5100392;27;20410;-74
2022/11/12 00:26:00;;;;;;;24.92;16.77;;;;;;;;;;5116158;27;20414;-75
2022/11/12 00:28:26;;;;;;;23.83;16.08;;;;;;;;;;5117356;27;20509;-75
2022/11/12 00:30:53;;;;;;;24.83;16.70;;;;;;;;;;5116680;27;20414;-75
2022/11/12 00:33:19;;;;;;;25.42;16.73;;;;;;;;;;5116807;27;20440;-75
2022/11/12 00:35:45;;;;;;;24.52;16.60;;;;;;;;;;5114190;27;20780;-75
2022/11/12 00:38:11;;;;;;;24.90;16.65;;;;;;;;;;5098563;27;20412;-76
2022/11/12 00:40:37;;;;;;;23.35;15.65;;;;;;;;;;5117280;27;20475;-75
2022/11/12 00:43:03;;;;;;;22.15;14.80;;;;;;;;;;5098320;27;20435;-76
2022/11/12 00:45:29;;;;;;;22.80;15.70;;;;;;;;;;5115800;27;20534;-75
2022/11/12 00:47:56;;;;;;;25.63;16.27;;;;;;;;;;5117074;27;20433;-75
2022/11/12 00:50:22;;;;;;;28.02;16.98;;;;;;;;;;5117264;27;20447;-75
2022/11/12 00:52:50;;;;;;;26.20;16.63;;;;;;;;;;5113241;27;20422;-73
2022/11/12 00:55:16;;;;;;;23.77;16.10;;;;;;;;;;5117488;27;20418;-74
2022/11/12 00:57:42;;;;;;;26.48;17.63;;;;;;;;;;5116201;27;20445;-74
2022/11/12 01:00:16;;;;;;;24.33;16.88;;;6.80;99.90;;;;;;5099949;27;20395;-74
2022/11/12 01:02:42;;;;;;;25.17;16.88;;;;;;;;;;5114874;27;20426;-74
2022/11/12 01:05:08;;;;;;;26.33;17.27;;;;;;;;;;5095921;27;20485;-74
2022/11/12 01:07:34;;;;;;;25.67;17.33;;;;;;;;;;5099663;27;20453;-74
2022/11/12 01:10:00;;;;;;;26.27;17.10;;;;;;;;;;5115781;27;20418;-74
2022/11/12 01:12:26;;;;;;;26.77;17.77;;;;;;;;;;5115180;27;20966;-74
2022/11/12 01:14:52;;;;;;;25.30;17.77;;;;;;;;;;5116103;27;20940;-73
2022/11/12 01:17:18;;;;;;;28.85;18.50;;;;;;;;;;5114403;27;20414;-73
2022/11/12 01:19:44;;;;;;;26.40;18.40;;;;;;;;;;5115467;27;20434;-74
2022/11/12 01:22:11;;;;;;;26.50;18.00;;;;;;;;;;5111029;28;20973;-74
2022/11/12 01:24:37;;;;;;;26.35;18.30;;;;;;;;;;5105327;27;20437;-74
2022/11/12 01:27:03;;;;;;;26.30;17.88;;;;;;;;;;5115321;27;20422;-74
2022/11/12 01:29:29;;;;;;;28.75;18.08;;;;;;;;;;5116154;27;20419;-74
2022/11/12 01:31:55;;;;;;;28.37;18.80;;;;;;;;;;5090590;27;20471;-74
2022/11/12 01:34:21;;;;;;;26.58;18.80;;;;;;;;;;5115491;27;20425;-74
2022/11/12 01:36:47;;;;;;;26.77;18.33;;;;;;;;;;5098527;27;21856;-74
2022/11/12 01:39:14;;;;;;;28.48;18.45;;;;;;;;;;5097518;27;20728;-73
2022/11/12 01:41:40;;;;;;;30.75;19.55;;;;;;;;;;5114692;27;20425;-74
2022/11/12 01:44:06;;;;;;;30.65;20.23;;;;;;;;;;5114610;27;20514;-74
2022/11/12 01:46:34;;;;;;;29.05;19.48;;;;;;;;;;5099216;27;20430;-74
2022/11/12 01:49:05;;;;;;;27.33;19.45;;;;;;;;;;5097580;27;20450;-74
2022/11/12 01:51:39;;;;;;;29.48;18.65;;;6.40;99.90;;;;;;5114327;27;20414;-75
2022/11/12 01:54:08;;;;;;;30.83;19.83;;;6.90;99.90;;;;;;5114838;27;20962;-75
2022/11/12 01:56:35;;;;;;;29.30;19.50;;;;;;;;;;5109547;28;20460;-75
2022/11/12 01:59:06;;;;;;;28.30;19.63;;;6.40;99.90;;;;;;5095538;28;20511;-75
2022/11/12 02:01:32;;;;;;;31.85;20.90;;;;;;;;;;5096730;28;20416;-75
2022/11/12 02:03:58;;;;;;;32.40;21.50;;;;;;;;;;5093205;27;20419;-75
2022/11/12 02:06:24;;;;;;;32.07;21.33;;;;;;;;;;5112292;27;20468;-75
2022/11/12 02:08:50;;;;;;;33.97;20.90;;;6.20;99.90;;;;;;5083255;28;20439;-74
2022/11/12 02:11:18;;;;;;;31.40;20.13;;;;;;;;;;5080381;27;20445;-77
2022/11/12 02:13:59;;;;;;;35.33;22.87;;;;;;;;;;5115486;27;20418;-77
2022/11/12 02:16:42;;;;;;;32.90;22.48;;;;;;;;;;5113310;27;20921;-77
2022/11/12 02:19:10;;;;;;;36.85;23.00;;;;;;;;;;5097051;27;20479;-75
2022/11/12 02:21:36;;;;;;;35.28;22.77;;;;;;;;;;5112119;27;20419;-75
2022/11/12 02:24:02;;;;;;;34.38;22.85;;;;;;;;;;5099260;27;20390;-75
2022/11/12 02:26:30;;;;;;;30.52;21.17;;;;;;;;;;5112989;27;20940;-75
2022/11/12 02:28:56;;;;;;;36.45;24.30;;;;;;;;;;5098881;27;20929;-75
2022/11/12 02:31:22;;;;;;;40.03;24.77;;;;;;;;;;5104807;27;20938;-75
2022/11/12 02:33:48;;;;;;;38.92;24.60;;;;;;;;;;5094546;27;20802;-75
2022/11/12 02:36:14;;;;;;;38.00;24.33;;;;;;;;;;5095718;27;20414;-75
2022/11/12 02:38:40;;;;;;;39.80;24.63;;;;;;;;;;5114845;27;21074;-75
2022/11/12 02:41:06;;;;;;;38.17;24.85;;;;;;;;;;5113940;27;20438;-76
2022/11/12 02:43:32;;;;;;;41.08;26.98;;;;;;;;;;5113060;27;20410;-75
2022/11/12 02:45:58;;;;;;;35.90;24.95;;;;;;;;;;5094674;27;21029;-75
2022/11/12 02:48:26;;;;;;;35.67;24.50;;;5.90;99.90;;;;;;5113089;27;20956;-75
2022/11/12 02:50:52;;;;;;;37.65;24.75;;;;;;;;;;5096693;27;20454;-75
2022/11/12 02:53:18;;;;;;;38.37;26.27;;;;;;;;;;5113874;27;20445;-75
2022/11/12 02:55:44;;;;;;;41.95;27.35;;;;;;;;;;5111112;27;20454;-75
2022/11/12 02:58:10;;;;;;;46.85;27.80;;;;;;;;;;5115351;27;20414;-75
2022/11/12 03:00:36;;;;;;;42.45;27.98;;;;;;;;;;5115561;27;20394;-75
2022/11/12 03:03:02;;;;;;;42.45;27.50;;;;;;;;;;5113570;27;20411;-75
2022/11/12 03:05:30;;;;;;;36.42;26.23;;;;;;;;;;5100242;27;20954;-75
2022/11/12 03:08:04;;;;;;;43.85;27.27;;;5.70;99.90;;;;;;5112434;27;20420;-75
2022/11/12 03:10:30;;;;;;;45.95;29.70;;;;;;;;;;5115396;27;20391;-74
2022/11/12 03:12:57;;;;;;;40.95;27.10;;;;;;;;;;5085939;28;20786;-74
2022/11/12 03:15:24;;;;;;;41.17;27.95;;;;;;;;;;5104391;27;20418;-75
2022/11/12 03:17:50;;;;;;;45.85;29.58;;;;;;;;;;5112172;27;20425;-75
2022/11/12 03:20:16;;;;;;;54.72;34.15;;;;;;;;;;5115082;27;20459;-75
2022/11/12 03:22:42;;;;;;;80.45;34.33;;;;;;;;;;5097393;27;20479;-75
2022/11/12 03:25:09;;;;;;;43.40;28.20;;;;;;;;;;5103924;27;20421;-75
2022/11/12 03:27:35;;;;;;;42.35;27.75;;;;;;;;;;5095874;27;20466;-74
2022/11/12 03:30:01;;;;;;;41.85;27.42;;;;;;;;;;5112877;27;20422;-74
2022/11/12 03:32:27;;;;;;;37.47;25.30;;;;;;;;;;5112099;27;21052;-74
2022/11/12 03:34:53;;;;;;;39.13;26.02;;;;;;;;;;5112451;27;20417;-74
2022/11/12 03:37:19;;;;;;;40.00;26.70;;;;;;;;;;5113564;27;20425;-75
2022/11/12 03:39:45;;;;;;;37.75;26.33;;;;;;;;;;5097340;27;20426;-75
2022/11/12 03:42:11;;;;;;;46.73;28.80;;;;;;;;;;5104699;28;20420;-75
2022/11/12 03:44:37;;;;;;;41.92;26.05;;;;;;;;;;5083278;28;20458;-75
2022/11/12 03:47:03;;;;;;;38.33;26.25;;;;;;;;;;5104226;28;20419;-74
2022/11/12 03:49:29;;;;;;;38.42;25.08;;;;;;;;;;5112334;27;20420;-75
2022/11/12 03:51:55;;;;;;;38.70;24.35;;;;;;;;;;5112742;27;20448;-75
2022/11/12 03:54:21;;;;;;;37.47;25.80;;;;;;;;;;5112344;27;20420;-75
2022/11/12 03:56:47;;;;;;;39.15;26.92;;;;;;;;;;5112809;27;20422;-75
2022/11/12 03:59:13;;;;;;;42.95;28.38;;;;;;;;;;5113233;27;20418;-74
2022/11/12 04:01:40;;;;;;;45.50;29.00;;;;;;;;;;5112520;27;20420;-75
2022/11/12 04:04:06;;;;;;;36.35;26.02;;;;;;;;;;5097196;27;20405;-75
2022/11/12 04:09:16;;;;;;;37.15;25.85;;;;;;;;;;5111971;27;20422;-75
2022/11/12 04:11:42;;;;;;;34.80;24.42;;;;;;;;;;5114141;28;20399;-75
2022/11/12 04:14:08;;;;;;;48.17;29.10;;;;;;;;;;5112946;28;20419;-75
2022/11/12 04:22:06;;;;;;;39.00;27.35;;;;;;;;;;5112702;28;20425;-75
2022/11/12 04:27:18;;;;;;;41.78;28.08;;;;;;;;;;5111493;28;20440;-75
2022/11/12 04:32:31;;;;;;;38.35;26.85;;;4.90;99.90;;;;;;5113714;28;20454;-75
2022/11/12 04:34:57;;;;;;;47.13;30.92;;;;;;;;;;5112287;28;20417;-75
2022/11/12 04:37:27;;;;;;;41.90;28.60;;;4.60;99.90;;;;;;5111710;27;20419;-77
2022/11/12 04:39:53;;;;;;;42.05;28.85;;;;;;;;;;5093854;28;20533;-77
2022/11/12 04:45:08;;;;;;;53.87;32.23;;;4.80;99.90;;;;;;5112471;28;20893;-77
2022/11/12 04:47:45;;;;;;;49.67;32.50;;;5.00;99.90;;;;;;5095834;28;20426;-76
2022/11/12 04:50:15;;;;;;;49.70;33.58;;;;;;;;;;5112053;28;20436;-77
2022/11/12 04:52:41;;;;;;;67.28;39.30;;;;;;;;;;5112072;28;20418;-75
2022/11/12 04:55:08;;;;;;;69.95;42.00;;;;;;;;;;5111619;28;20414;-77
2022/11/12 04:57:34;;;;;;;89.70;43.05;;;;;;;;;;5101172;28;20418;-76
2022/11/12 05:00:00;;;;;;;72.65;41.17;;;;;;;;;;5096988;28;20774;-76
2022/11/12 05:02:26;;;;;;;74.32;40.97;;;;;;;;;;5131026;27;20439;-76
2022/11/12 05:04:52;;;;;;;61.00;36.08;;;;;;;;;;5131130;27;20414;-76
2022/11/12 05:07:18;;;;;;;359.90;65.72;;;;;;;;;;5134141;27;20886;-76
2022/11/12 05:09:45;;;;;;;139.75;50.30;;;;;;;;;;5100304;27;20446;-76
2022/11/12 05:12:11;;;;;;;109.25;46.03;;;;;;;;;;5106870;28;20420;-76
2022/11/12 05:14:37;;;;;;;236.93;54.42;;;;;;;;;;5107627;27;20426;-76
2022/11/12 05:17:03;;;;;;;68.32;37.75;;;;;;;;;;5133902;27;20425;-76
2022/11/12 05:19:30;;;;;;;89.70;41.08;;;;;;;;;;5134650;27;20442;-76
2022/11/12 05:22:05;;;;;;;211.40;52.00;;;;;;;;;;5098442;27;20414;-76
2022/11/12 05:24:31;;;;;;;421.37;70.53;;;;;;;;;;5112242;27;20444;-76
2022/11/12 05:26:58;;;;;;;153.88;48.33;;;;;;;;;;5114556;27;20499;-76
2022/11/12 05:29:24;;;;;;;108.10;43.03;;;;;;;;;;5116987;27;20399;-76
2022/11/12 05:31:50;;;;;;;589.93;77.40;;;;;;;;;;5115838;27;20425;-76
2022/11/12 05:34:16;;;;;;;392.85;63.65;;;;;;;;;;5131605;27;20719;-75
2022/11/12 05:36:42;;;;;;;282.30;53.93;;;;;;;;;;5134542;27;20402;-75
2022/11/12 05:39:08;;;;;;;883.42;102.57;;;;;;;;;;5132753;27;20501;-76
2022/11/12 05:41:34;;;;;;;470.35;66.35;;;;;;;;;;5113037;27;21048;-75
2022/11/12 05:44:01;;;;;;;421.92;61.17;;;;;;;;;;5116675;27;20401;-76
2022/11/12 05:46:27;;;;;;;472.88;68.88;;;;;;;;;;5134444;27;20461;-76
2022/11/12 05:48:53;;;;;;;846.42;98.03;;;;;;;;;;5115189;27;20765;-76
2022/11/12 05:51:19;;;;;;;853.95;99.53;;;;;;;;;;5133951;27;20410;-76
2022/11/12 05:53:45;;;;;;;433.33;60.88;;;;;;;;;;5112754;27;20509;-76
2022/11/12 05:56:11;;;;;;;246.07;47.15;;;;;;;;;;5094529;28;20980;-76
2022/11/12 05:58:38;;;;;;;358.73;58.27;;;;;;;;;;5078575;28;20473;-75
2022/11/12 06:01:04;;;;;;;1024.88;109.55;;;;;;;;;;5115415;27;20416;-75
2022/11/12 06:03:30;;;;;;;318.35;54.80;;;;;;;;;;5112593;27;20459;-76
2022/11/12 06:05:56;;;;;;;303.50;58.10;;;;;;;;;;5113875;27;20421;-76
2022/11/12 06:08:22;;;;;;;233.05;49.97;;;;;;;;;;5115547;27;20455;-75
2022/11/12 06:10:49;;;;;;;169.38;45.03;;;;;;;;;;5113304;27;20426;-76
2022/11/12 06:13:15;;;;;;;276.67;54.88;;;;;;;;;;5128207;27;20429;-76
2022/11/12 06:15:41;;;;;;;299.23;53.72;;;;;;;;;;5108603;27;20414;-76
2022/11/12 06:18:08;;;;;;;205.38;47.22;;;;;;;;;;5097103;27;20415;-76
2022/11/12 06:20:34;;;;;;;208.77;46.83;;;;;;;;;;5116363;27;20430;-76
2022/11/12 06:23:00;;;;;;;285.83;54.37;;;;;;;;;;5105732;28;20454;-76
2022/11/12 06:25:26;;;;;;;193.77;48.45;;;;;;;;;;5100633;27;20424;-75
2022/11/12 06:27:53;;;;;;;327.48;54.55;;;;;;;;;;5084913;28;20428;-75
2022/11/12 06:30:19;;;;;;;230.82;50.47;;;;;;;;;;5112556;27;20434;-75
2022/11/12 06:32:46;;;;;;;191.32;48.53;;;;;;;;;;5111605;28;20928;-75
2022/11/12 06:35:12;;;;;;;159.93;48.63;;;;;;;;;;5100528;27;20510;-76
2022/11/12 06:37:38;;;;;;;166.82;49.42;;;;;;;;;;5113173;27;20423;-78
2022/11/12 06:40:05;;;;;;;145.55;45.42;;;;;;;;;;5114202;27;20537;-78
2022/11/12 06:42:31;;;;;;;334.25;63.95;;;;;;;;;;5097724;27;20414;-78
2022/11/12 06:44:57;;;;;;;267.33;54.30;;;;;;;;;;5113435;27;20434;-79
2022/11/12 06:47:23;;;;;;;352.47;64.93;;;;;;;;;;5113948;27;20541;-79
2022/11/12 06:49:49;;;;;;;297.40;60.85;;;;;;;;;;5097774;27;20435;-77
2022/11/12 06:52:15;;;;;;;439.52;77.35;;;;;;;;;;5115185;27;20422;-77
2022/11/12 06:54:41;;;;;;;422.42;63.90;;;;;;;;;;5119176;27;20410;-78
2022/11/12 06:57:10;;;;;;;266.25;55.85;;;;;;;;;;5098358;27;20519;-78
2022/11/12 06:59:36;;;;;;;410.75;69.53;;;;;;;;;;5115585;27;20399;-78
2022/11/12 07:02:03;;;;;;;410.87;71.10;;;;;;;;;;5098065;27;20469;-79
2022/11/12 07:04:29;;;;;;;450.25;76.93;;;;;;;;;;5115093;27;20414;-78
2022/11/12 07:06:55;;;;;;;461.25;71.13;;;;;;;;;;5112351;27;20496;-79
2022/11/12 07:09:21;;;;;;;495.93;84.10;;;;;;;;;;5093879;28;20396;-79
2022/11/12 07:11:47;;;;;;;444.98;81.75;;;;;;;;;;5095092;28;20400;-79
2022/11/12 07:14:13;;;;;;;376.20;68.13;;;;;;;;;;5102559;27;20414;-79
2022/11/12 07:16:39;;;;;;;518.40;86.25;;;;;;;;;;5108660;27;20936;-78
2022/11/12 07:19:06;;;;;;;546.58;91.32;;;;;;;;;;5088990;27;20419;-80
2022/11/12 07:21:32;;;;;;;531.88;92.57;;;;;;;;;;5097113;27;20801;-80
2022/11/12 07:23:58;;;;;;;488.88;89.07;;;;;;;;;;5113782;27;20526;-81
2022/11/12 07:26:26;;;;;;;379.02;75.45;;;5.50;99.90;;;;;;5097646;27;20432;-80
2022/11/12 07:28:55;;;;;;;460.50;85.72;;;5.50;99.90;;;;;;5112387;27;20939;-80
2022/11/12 07:31:22;;;;;;;288.05;70.78;;;;;;;;;;5087130;27;20425;-80
2022/11/12 07:33:48;;;;;;;293.07;69.90;;;;;;;;;;5113073;27;20918;-80
2022/11/12 07:36:16;;;;;;;335.10;70.33;;;;;;;;;;5097781;27;20492;-75
2022/11/12 07:38:43;;;;;;;368.30;73.22;;;;;;;;;;5112885;27;20425;-75
2022/11/12 07:41:13;;;;;;;265.85;67.82;;;;;;;;;;5095630;27;20977;-75
2022/11/12 07:43:41;;;;;;;274.05;70.32;;;6.20;99.90;;;;;;5111496;27;20421;-74
2022/11/12 07:46:08;;;;;;;292.92;69.50;;;;;;;;;;5106169;28;20447;-74
2022/11/12 07:48:34;;;;;;;393.17;81.75;;;;;;;;;;5109879;27;20867;-75
2022/11/12 07:51:11;;;;;;;759.15;120.90;;;;;;;;;;5094559;27;20418;-75
2022/11/12 07:53:37;;;;;;;567.78;108.88;;;;;;;;;;5092008;27;20432;-75
2022/11/12 07:56:06;;;;;;;559.35;104.00;;;;;;;;;;5104782;27;20513;-75
2022/11/12 07:58:33;;;;;;;499.00;96.53;;;;;;;;;;5103848;28;20428;-75
2022/11/12 08:01:07;;;;;;;477.80;90.80;;;;;;;;;;5093828;27;20419;-76
2022/11/12 08:03:33;;;;;;;475.98;87.80;;;;;;;;;;5110723;27;20739;-74
2022/11/12 08:06:00;;;;;;;444.15;83.30;;;;;;;;;;5108491;27;20418;-75
2022/11/12 08:08:26;;;;;;;528.03;96.28;;;;;;;;;;5112105;28;20419;-74
2022/11/12 08:10:56;;;;;;;1084.95;143.15;;;;;;;;;;5092132;28;20502;-74
2022/11/12 08:13:22;;;;;;;472.63;83.15;;;;;;;;;;5107925;28;20406;-75
2022/11/12 08:15:48;;;;;;;483.10;92.90;;;;;;;;;;5112902;28;20932;-75
2022/11/12 08:18:14;;;;;;;483.48;89.35;;;;;;;;;;5086387;28;20954;-74
2022/11/12 08:20:40;;;;;;;461.48;85.82;;;;;;;;;;5111928;28;20425;-74
2022/11/12 08:23:06;;;;;;;462.98;89.22;;;;;;;;;;5096410;27;20420;-75
2022/11/12 08:25:32;;;;;;;439.02;87.55;;;;;;;;;;5078518;28;20406;-75
2022/11/12 08:27:59;;;;;;;458.13;90.55;;;;;;;;;;5094071;28;20906;-75
2022/11/12 08:30:29;;;;;;;487.47;94.17;;;;;;;;;;5112910;28;20425;-75
2022/11/12 08:32:59;;;;;;;503.23;99.13;;;;;;;;;;5095983;28;20418;-74
2022/11/12 08:35:26;;;;;;;392.05;84.45;;;;;;;;;;5095059;28;20429;-75
2022/11/12 08:37:57;;;;;;;423.23;89.65;;;;;;;;;;5089868;27;20428;-75
2022/11/12 08:40:23;;;;;;;537.35;107.72;;;;;;;;;;5114405;27;20430;-74
2022/11/12 08:42:56;;;;;;;482.38;100.68;;;;;;;;;;5114625;27;20414;-75
2022/11/12 08:45:22;;;;;;;491.65;100.78;;;;;;;;;;5097322;28;20408;-75
2022/11/12 08:47:48;;;;;;;522.72;105.20;;;;;;;;;;5087038;27;20442;-75
2022/11/12 08:50:14;;;;;;;861.53;139.03;;;;;;;;;;5116474;27;20418;-75
2022/11/12 08:52:40;;;;;;;590.65;109.88;;;;;;;;;;5098079;27;20426;-75
2022/11/12 08:55:06;;;;;;;470.02;93.75;;;;;;;;;;5114897;27;20432;-74
2022/11/12 08:57:38;;;;;;;472.15;93.85;;;;;;;;;;5116627;27;20804;-75
2022/11/12 09:00:05;;;;;;;461.85;89.82;;;;;;;;;;5116035;27;20415;-75
2022/11/12 09:02:31;;;;;;;625.58;105.32;;;;;;;;;;5097607;27;20414;-75
2022/11/12 09:04:57;;;;;;;529.85;97.38;;;;;;;;;;5075088;27;20417;-75
2022/11/12 09:07:23;;;;;;;506.15;93.80;;;;;;;;;;5106635;27;20415;-75
2022/11/12 09:09:49;;;;;;;566.80;98.87;;;;;;;;;;5094692;27;20407;-75
2022/11/12 09:12:18;;;;;;;676.15;112.97;;;;;;;;;;5114052;27;20406;-75
2022/11/12 09:14:44;;;;;;;1172.03;157.57;;;7.00;99.90;;;;;;5115313;27;20446;-75
2022/11/12 09:17:10;;;;;;;577.25;101.53;;;;;;;;;;5114816;27;20410;-75
2022/11/12 09:19:37;;;;;;;603.97;102.03;;;;;;;;;;5111544;27;20467;-75
2022/11/12 09:22:03;;;;;;;516.63;94.75;;;;;;;;;;5096480;27;20426;-75
2022/11/12 09:24:29;;;;;;;628.08;105.88;;;;;;;;;;5106716;27;20415;-75
2022/11/12 09:26:55;;;;;;;993.42;145.23;;;;;;;;;;5094661;27;20448;-75
2022/11/12 09:29:21;;;;;;;722.15;111.70;;;;;;;;;;5095354;28;20447;-74
2022/11/12 09:31:47;;;;;;;603.63;99.55;;;;;;;;;;5089424;27;20425;-74
2022/11/12 09:34:14;;;;;;;671.45;100.63;;;;;;;;;;5113573;27;20560;-74
2022/11/12 09:36:40;;;;;;;701.13;99.50;;;;;;;;;;5095673;27;20471;-74
2022/11/12 09:39:06;;;;;;;1170.78;140.15;;;;;;;;;;5109830;27;20997;-74
2022/11/12 09:41:35;;;;;;;790.53;108.28;;;7.30;99.90;;;;;;5092505;27;20418;-74
2022/11/12 09:44:03;;;;;;;663.50;92.45;;;;;;;;;;5110634;27;20414;-75
2022/11/12 09:46:48;;;;;;;791.03;104.80;;;7.30;99.90;;;;;;5114756;27;20422;-76
2022/11/12 09:49:17;;;;;;;698.47;96.30;;;7.10;99.90;;;;;;5112645;28;20467;-74
2022/11/12 09:51:51;;;;;;;839.63;113.25;;;;;;;;;;5092687;27;20432;-74
2022/11/12 09:54:20;;;;;;;774.38;105.10;;;;;;;;;;5110808;27;20417;-73
2022/11/12 09:56:48;;;;;;;749.00;103.40;;;;;;;;;;5132364;27;20769;-74
2022/11/12 09:59:14;;;;;;;774.37;108.03;;;;;;;;;;5130426;27;20943;-75
2022/11/12 10:01:43;;;;;;;785.30;103.85;;;;;;;;;;5112852;27;20926;-76
2022/11/12 10:04:15;;;;;;;621.38;94.20;;;;;;;;;;5093385;27;20456;-75
2022/11/12 10:07:00;;;;;;;803.50;106.57;;;;;;;;;;5110962;27;20415;-74
2022/11/12 10:09:29;;;;;;;771.47;108.28;;;;;;;;;;5092273;27;20412;-74
2022/11/12 10:14:46;;;;;;;585.75;90.97;;;;;;;;;;5124320;27;21019;-75
2022/11/12 10:17:19;;;;;;;552.83;91.57;;;;;;;;;;5113764;27;20922;-75
2022/11/12 10:20:04;;;;;;;548.33;93.03;;;;;;;;;;5089556;27;20411;-75
2022/11/12 10:22:57;;;;;;;557.90;100.97;;;;;;;;;;5113940;27;20406;-74
2022/11/12 10:25:24;;;;;;;484.05;89.82;;;;;;;;;;5055808;27;20411;-75
2022/11/12 10:27:54;;;;;;;353.77;83.13;;;;;;;;;;5090428;27;20410;-75
2022/11/12 10:30:22;;;;;;;448.65;98.22;;;;;;;;;;5105857;27;20416;-75
2022/11/12 10:32:49;;;;;;;471.17;95.65;;;;;;;;;;5126549;27;20988;-75
2022/11/12 10:35:17;;;;;;;429.65;97.53;;;;;;;;;;5124020;27;20778;-75
2022/11/12 10:37:43;;;;;;;427.08;94.32;;;;;;;;;;5112212;27;20466;-75
2022/11/12 10:40:21;;;;;;;309.17;86.10;;;;;;;;;;5107242;27;20444;-75
2022/11/12 10:43:01;;;;;;;407.63;97.07;;;;;;;;;;5109129;27;20413;-74
2022/11/12 10:45:28;;;;;;;362.75;92.68;;;;;;;;;;5113705;27;20818;-75
2022/11/12 10:47:54;;;;;;;472.90;102.95;;;;;;;;;;5110837;27;20456;-75
2022/11/12 10:50:34;;;;;;;392.55;94.88;;;;;;;;;;5113642;27;20422;-76
2022/11/12 10:53:04;;;;;;;358.08;91.07;;;;;;;;;;5094183;27;20471;-75
2022/11/12 10:55:34;;;;;;;236.48;77.70;;;;;;;;;;5113311;27;20801;-76
2022/11/12 10:58:05;;;;;;;310.47;86.30;;;;;;;;;;5109829;27;20524;-76
2022/11/12 11:00:31;;;;;;;525.35;105.07;;;;;;;;;;5111656;27;20411;-74
2022/11/12 11:02:58;;;;;;;201.55;72.18;;;;;;;;;;5111799;27;20415;-74
2022/11/12 11:05:30;;;;;;;306.40;87.68;;;;;;;;;;5093850;27;20435;-74
2022/11/12 11:07:57;;;;;;;314.02;84.40;;;;;;;;;;5112348;27;20418;-74
2022/11/12 11:10:28;;;;;;;560.35;112.78;;;;;;;;;;5109881;27;20411;-74
2022/11/12 11:13:13;;;;;;;503.60;110.32;;;;;;;;;;5111924;27;20429;-74
2022/11/12 11:15:39;;;;;;;254.13;84.00;;;;;;;;;;5093974;27;20471;-74
2022/11/12 11:18:08;;;;;;;298.87;83.93;;;;;;;;;;5125999;27;20511;-74
2022/11/12 11:20:40;;;;;;;243.95;81.50;;;;;;;;;;5122280;27;20475;-74
2022/11/12 11:23:21;;;;;;;451.63;96.28;;;;;;;;;;5111950;27;20426;-74
2022/11/12 11:25:50;;;;;;;405.53;90.50;;;;;;;;;;5109089;27;20437;-75
2022/11/12 11:28:22;;;;;;;324.80;85.93;;;;;;;;;;5129732;27;20739;-74
2022/11/12 11:30:57;;;;;;;232.90;76.57;;;;;;;;;;5106620;27;20422;-72
2022/11/12 11:33:29;;;;;;;220.27;77.07;;;;;;;;;;5124387;27;20406;-74
2022/11/12 11:35:58;;;;;;;163.27;67.10;;;;;;;;;;5108572;27;20927;-74
2022/11/12 11:38:24;;;;;;;149.77;62.72;;;;;;;;;;5095040;27;20429;-73
2022/11/12 11:41:11;;;;;;;137.48;61.88;;;;;;;;;;5125735;27;20674;-74
2022/11/12 11:43:51;;;;;;;130.90;61.92;;;;;;;;;;5111686;27;20495;-74
2022/11/12 11:46:26;;;;;;;231.32;76.55;;;;;;;;;;5113263;27;20917;-74
2022/11/12 11:49:04;;;;;;;153.80;66.60;;;;;;;;;;5109778;27;20946;-74
2022/11/12 11:51:52;;;;;;;122.00;57.08;;;;;;;;;;5094130;27;20418;-74
2022/11/12 11:54:24;;;;;;;131.00;61.20;;;;;;;;;;5107162;27;20425;-74
2022/11/12 11:56:55;;;;;;;125.03;58.97;;;8.90;99.90;;;;;;5113261;27;20419;-74
2022/11/12 11:59:24;;;;;;;114.97;56.38;;;;;;;;;;5112941;27;20464;-74
2022/11/12 12:01:51;;;;;;;129.93;60.13;;;;;;;;;;5091311;28;20914;-75
2022/11/12 12:04:31;;;;;;;131.77;60.17;;;;;;;;;;5094399;27;20411;-75
2022/11/12 12:07:08;;;;;;;132.93;59.40;;;;;;;;;;5129363;27;20746;-74
2022/11/12 12:10:24;;;;;;;113.60;56.83;;;9.20;99.90;;;;;;5129769;27;20438;-74
2022/11/12 12:13:05;;;;;;;100.65;52.88;;;;;;;;;;5114437;27;20472;-75
2022/11/12 12:15:37;;;;;;;90.97;49.97;;;;;;;;;;5115111;27;20623;-74
2022/11/12 12:18:22;;;;;;;87.93;48.38;;;;;;;;;;5129082;28;20501;-75
2022/11/12 12:20:56;;;;;;;84.68;46.70;;;9.50;99.90;;;;;;5110228;28;20419;-74
2022/11/12 12:23:26;;;;;;;79.03;46.92;;;;;;;;;;5124402;28;20812;-75
2022/11/12 12:25:56;;;;;;;73.07;44.50;;;9.50;99.90;;;;;;5105214;28;20436;-75
2022/11/12 12:28:54;;;;;;;77.60;46.42;;;9.40;99.90;;;;;;5088438;28;20988;-77
2022/11/12 12:31:24;;;;;;;79.25;46.47;;;;;;;;;;5092591;28;20399;-74
2022/11/12 12:33:55;;;;;;;75.13;44.80;;;;;;;;;;5108529;28;20895;-74
2022/11/12 12:36:21;;;;;;;74.95;45.00;;;;;;;;;;5106242;28;20414;-74
2022/11/12 12:39:07;;;;;;;75.43;44.70;;;;;;;;;;5106989;28;20414;-74
2022/11/12 12:41:57;;;;;;;68.43;43.35;;;;;;;;;;5101494;28;20931;-75
2022/11/12 12:44:58;;;;;;;68.53;43.95;;;;;;;;;;5087609;28;20892;-74
2022/11/12 12:47:14;;;;;;;68.23;43.40;;;;;;;;;;5122504;28;20414;-74
2022/11/12 12:49:41;;;;;;;61.65;40.50;;;;;;;;;;5109404;28;20444;-74
2022/11/12 12:52:11;;;;;;;61.33;41.63;;;;;;;;;;5107262;28;20442;-73
2022/11/12 12:54:40;;;;;;;62.20;41.78;;;;;;;;;;5106326;28;20446;-73
2022/11/12 12:57:25;;;;;;;59.20;41.53;;;;;;;;;;5092865;28;20400;-74
2022/11/12 12:59:51;;;;;;;57.53;40.75;;;;;;;;;;5092870;28;20407;-74
2022/11/12 13:02:24;;;;;;;58.95;41.85;;;;;;;;;;5120579;28;20420;-74
2022/11/12 13:04:53;;;;;;;57.72;41.13;;;;;;;;;;5095099;28;20399;-73
2022/11/12 13:07:22;;;;;;;58.92;42.40;;;;;;;;;;5124848;27;20519;-74
2022/11/12 13:09:48;;;;;;;58.28;40.80;;;;;;;;;;5111386;28;20450;-74
2022/11/12 13:14:42;;;;;;;57.90;42.10;;;;;;;;;;5130455;28;20931;-74
2022/11/12 13:17:09;;;;;;;59.47;41.88;;;;;;;;;;5129281;28;20497;-74
2022/11/12 13:19:37;;;;;;;67.07;44.70;;;;;;;;;;5109255;28;20435;-74
2022/11/12 13:22:19;;;;;;;67.18;46.38;;;;;;;;;;5108300;28;20834;-74
2022/11/12 13:25:04;;;;;;;63.83;45.37;;;;;;;;;;5114265;27;20597;-75
2022/11/12 13:27:39;;;;;;;66.03;45.30;;;;;;;;;;5108383;27;20406;-74
2022/11/12 13:30:19;;;;;;;61.80;44.13;;;;;;;;;;5100097;27;20399;-74
2022/11/12 13:32:49;;;;;;;62.90;44.22;;;;;;;;;;5096661;27;20419;-74
2022/11/12 13:35:21;;;;;;;60.35;43.20;;;;;;;;;;5114521;27;20407;-75
2022/11/12 13:37:50;;;;;;;57.58;41.97;;;;;;;;;;5131108;27;20921;-74
2022/11/12 13:40:19;;;;;;;57.17;41.25;;;;;;;;;;5115601;27;20932;-75
2022/11/12 13:42:49;;;;;;;62.05;41.35;;;;;;;;;;5096302;27;20423;-75
2022/11/12 13:45:16;;;;;;;58.53;41.50;;;;;;;;;;5112413;27;20430;-75
2022/11/12 13:47:43;;;;;;;58.28;40.72;;;;;;;;;;5131924;27;20425;-75
2022/11/12 13:50:13;;;;;;;56.10;40.45;;;;;;;;;;5114667;27;20770;-75
2022/11/12 13:52:40;;;;;;;57.27;41.23;;;;;;;;;;5090637;27;20426;-75
2022/11/12 13:55:17;;;;;;;56.25;40.70;;;;;;;;;;5125707;27;20499;-75
2022/11/12 13:57:53;;;;;;;55.72;40.88;;;;;;;;;;5111884;27;20517;-75
2022/11/12 14:00:22;;;;;;;55.33;41.00;;;;;;;;;;5125769;27;20414;-75
2022/11/12 14:03:00;;;;;;;57.72;41.50;;;10.40;99.90;;;;;;5107094;27;20494;-76
2022/11/12 14:05:31;;;;;;;53.88;39.38;;;;;;;;;;5094935;27;21000;-75
2022/11/12 14:08:30;;;;;;;52.20;39.50;;;10.30;99.90;;;;;;5109272;27;20425;-76
2022/11/12 14:11:14;;;;;;;51.15;38.88;;;;;;;;;;5092636;27;20874;-75
2022/11/12 14:13:55;;;;;;;57.35;39.95;;;10.40;99.90;;;;;;5113229;27;20422;-77
2022/11/12 14:16:21;;;;;;;52.95;39.90;;;;;;;;;;5113008;27;20502;-75
2022/11/12 14:19:10;;;;;;;49.72;38.40;;;;;;;;;;5114320;27;20433;-75
2022/11/12 14:21:36;;;;;;;50.92;37.83;;;;;;;;;;5076020;27;20522;-75
2022/11/12 14:24:03;;;;;;;50.15;38.78;;;;;;;;;;5113623;27;20463;-74
2022/11/12 14:26:47;;;;;;;50.03;37.40;;;;;;;;;;5131646;27;20413;-74
2022/11/12 14:29:17;;;;;;;49.05;38.92;;;;;;;;;;5108318;27;20439;-75
2022/11/12 14:31:43;;;;;;;51.20;38.73;;;;;;;;;;5096814;27;20418;-76
2022/11/12 14:34:42;;;;;;;48.13;36.90;;;;;;;;;;5111372;27;20424;-75